createdAt,value
2018-05-14T00:01:38.406Z,15.00
2018-05-14T00:04:04.734Z,14.90
2018-05-14T00:06:31.306Z,14.80
2018-05-14T00:08:57.609Z,14.80
2018-05-14T00:11:24.721Z,14.90
2018-05-14T00:13:51.194Z,15.00
2018-05-14T00:16:17.739Z,14.80
2018-05-14T00:18:44.065Z,14.80
2018-05-14T00:21:11.114Z,14.80
2018-05-14T00:23:37.464Z,14.80
2018-05-14T00:26:03.874Z,14.70
2018-05-14T00:28:30.964Z,14.70
2018-05-14T00:30:57.269Z,14.70
2018-05-14T00:33:24.416Z,14.60
2018-05-14T00:35:51.006Z,14.60
2018-05-14T00:38:17.330Z,14.70
2018-05-14T00:40:43.661Z,14.70
2018-05-14T00:43:09.993Z,14.70
2018-05-14T00:45:36.338Z,14.60
2018-05-14T00:48:02.651Z,14.60
2018-05-14T00:50:28.990Z,14.70
2018-05-14T00:52:55.350Z,14.60
2018-05-14T00:55:21.877Z,14.60
2018-05-14T00:57:48.180Z,14.60
2018-05-14T01:00:14.513Z,14.50
2018-05-14T01:02:41.588Z,14.40
2018-05-14T01:05:07.917Z,14.40
2018-05-14T01:07:34.261Z,14.40
2018-05-14T01:10:01.310Z,14.30
2018-05-14T01:12:28.401Z,14.40
2018-05-14T01:14:54.837Z,14.30
2018-05-14T01:17:21.234Z,14.30
2018-05-14T01:19:47.596Z,14.30
2018-05-14T01:22:13.901Z,14.30
2018-05-14T01:24:46.294Z,14.30
2018-05-14T01:27:12.769Z,14.30
2018-05-14T01:29:39.077Z,14.30
2018-05-14T01:32:05.414Z,14.30
2018-05-14T01:34:31.741Z,14.30
2018-05-14T01:36:58.101Z,14.20
2018-05-14T01:39:24.445Z,14.20
2018-05-14T01:41:50.822Z,14.20
2018-05-14T01:44:17.226Z,14.20
2018-05-14T01:46:44.486Z,14.20
2018-05-14T01:49:10.860Z,14.20
2018-05-14T01:51:37.166Z,14.20
2018-05-14T01:54:03.485Z,14.20
2018-05-14T01:56:30.037Z,14.20
2018-05-14T01:58:56.426Z,14.20
2018-05-14T02:01:23.538Z,14.10
2018-05-14T02:03:49.903Z,14.10
2018-05-14T02:06:17.033Z,14.10
2018-05-14T02:08:43.366Z,14.10
2018-05-14T02:11:09.693Z,14.10
2018-05-14T02:13:36.002Z,14.10
2018-05-14T02:16:02.608Z,14.20
2018-05-14T02:18:28.932Z,14.10
2018-05-14T02:20:55.256Z,14.10
2018-05-14T02:23:21.789Z,14.10
2018-05-14T02:25:48.402Z,14.00
2018-05-14T02:28:14.723Z,14.00
2018-05-14T02:30:41.097Z,13.90
2018-05-14T02:33:07.482Z,13.90
2018-05-14T02:35:33.927Z,14.00
2018-05-14T02:38:00.231Z,14.00
2018-05-14T02:40:26.617Z,13.90
2018-05-14T02:42:53.682Z,13.90
2018-05-14T02:45:20.009Z,13.80
2018-05-14T02:47:46.337Z,13.90
2018-05-14T02:50:12.673Z,13.90
2018-05-14T02:52:39.043Z,13.90
2018-05-14T02:55:05.422Z,13.90
2018-05-14T02:57:31.831Z,13.80
2018-05-14T02:59:58.177Z,13.80
2018-05-14T03:02:25.241Z,13.90
2018-05-14T03:04:51.658Z,13.80
2018-05-14T03:07:17.996Z,13.80
2018-05-14T03:09:45.050Z,13.80
2018-05-14T03:12:12.139Z,13.80
2018-05-14T03:14:38.513Z,13.80
2018-05-14T03:17:04.943Z,13.80
2018-05-14T03:19:31.285Z,13.80
2018-05-14T03:21:58.371Z,13.90
2018-05-14T03:24:24.681Z,13.90
2018-05-14T03:26:51.181Z,13.90
2018-05-14T03:29:17.518Z,13.90
2018-05-14T03:31:43.850Z,13.90
2018-05-14T03:34:10.907Z,13.90
2018-05-14T03:36:38.301Z,13.90
2018-05-14T03:39:05.564Z,13.90
2018-05-14T03:41:31.941Z,13.90
2018-05-14T03:43:59.005Z,13.90
2018-05-14T03:46:26.223Z,13.90
2018-05-14T03:48:52.562Z,13.90
2018-05-14T03:51:18.889Z,13.90
2018-05-14T03:53:45.564Z,13.90
2018-05-14T03:56:12.089Z,14.00
2018-05-14T03:58:51.400Z,13.90
2018-05-14T04:01:17.805Z,13.90
2018-05-14T04:03:57.171Z,14.00
2018-05-14T04:06:38.709Z,14.00
2018-05-14T04:09:05.128Z,14.00
2018-05-14T04:11:31.442Z,13.90
2018-05-14T04:13:58.633Z,13.90
2018-05-14T04:16:25.255Z,13.90
2018-05-14T04:18:51.581Z,13.90
2018-05-14T04:21:17.901Z,13.90
2018-05-14T04:23:45.034Z,13.90
2018-05-14T04:26:12.273Z,13.90
2018-05-14T04:28:38.677Z,13.90
2018-05-14T04:31:05.246Z,14.00
2018-05-14T04:33:31.594Z,13.90
2018-05-14T04:35:58.085Z,13.90
2018-05-14T04:38:24.469Z,13.90
2018-05-14T04:40:50.784Z,13.90
2018-05-14T04:43:17.848Z,13.90
2018-05-14T04:45:44.275Z,13.90
2018-05-14T04:48:11.364Z,13.90
2018-05-14T04:50:38.425Z,13.80
2018-05-14T04:53:04.786Z,13.90
2018-05-14T04:55:31.311Z,13.90
2018-05-14T04:57:57.699Z,13.90
2018-05-14T05:00:24.013Z,13.90
2018-05-14T05:02:50.313Z,13.90
2018-05-14T05:05:16.881Z,13.90
2018-05-14T05:07:43.274Z,13.90
2018-05-14T05:10:09.614Z,14.00
2018-05-14T05:12:36.784Z,14.00
2018-05-14T05:15:03.922Z,14.00
2018-05-14T05:17:31.007Z,14.00
2018-05-14T05:19:57.317Z,14.00
2018-05-14T05:22:23.655Z,14.10
2018-05-14T05:24:50.056Z,14.10
2018-05-14T05:27:16.381Z,14.10
2018-05-14T05:29:44.190Z,14.00
2018-05-14T05:32:10.545Z,14.20
2018-05-14T05:34:36.958Z,14.20
2018-05-14T05:37:03.353Z,14.20
2018-05-14T05:39:30.465Z,14.20
2018-05-14T05:41:56.787Z,14.10
2018-05-14T05:44:23.108Z,14.10
2018-05-14T05:46:49.481Z,14.10
2018-05-14T05:49:15.800Z,14.20
2018-05-14T05:51:42.150Z,14.20
2018-05-14T05:54:08.558Z,14.20
2018-05-14T05:56:34.990Z,14.20
2018-05-14T05:59:01.322Z,14.20
2018-05-14T06:01:27.626Z,14.20
2018-05-14T06:03:53.967Z,14.20
2018-05-14T06:06:20.529Z,14.20
2018-05-14T06:08:46.861Z,14.20
2018-05-14T06:11:13.169Z,14.20
2018-05-14T06:13:39.529Z,14.30
2018-05-14T06:16:06.797Z,14.30
2018-05-14T06:18:33.896Z,14.40
2018-05-14T06:21:00.249Z,14.40
2018-05-14T06:23:26.596Z,14.40
2018-05-14T06:25:53.153Z,14.50
2018-05-14T06:28:19.473Z,14.50
2018-05-14T06:30:47.048Z,14.60
2018-05-14T06:33:13.393Z,14.60
2018-05-14T06:35:40.045Z,14.60
2018-05-14T06:38:06.624Z,14.70
2018-05-14T06:40:33.653Z,14.80
2018-05-14T06:42:59.990Z,14.80
2018-05-14T06:45:26.638Z,14.80
2018-05-14T06:47:52.957Z,14.80
2018-05-14T06:50:19.268Z,14.80
2018-05-14T06:52:45.653Z,14.90
2018-05-14T06:55:13.006Z,14.90
2018-05-14T06:57:39.266Z,14.90
2018-05-14T07:00:06.346Z,15.00
2018-05-14T07:02:32.676Z,14.90
2018-05-14T07:04:58.985Z,14.90
2018-05-14T07:07:25.329Z,15.00
2018-05-14T07:09:51.661Z,15.00
2018-05-14T07:12:18.025Z,15.00
2018-05-14T07:14:44.377Z,15.00
2018-05-14T07:17:11.502Z,15.10
2018-05-14T07:19:38.005Z,15.10
2018-05-14T07:22:04.405Z,15.10
2018-05-14T07:24:30.755Z,15.20
2018-05-14T07:26:57.079Z,15.20
2018-05-14T07:29:23.385Z,15.20
2018-05-14T07:31:49.722Z,15.20
2018-05-14T07:34:16.101Z,15.30
2018-05-14T07:36:42.425Z,15.30
2018-05-14T07:39:08.825Z,15.30
2018-05-14T07:41:35.973Z,15.40
2018-05-14T07:44:02.365Z,15.30
2018-05-14T07:46:28.785Z,15.40
2018-05-14T07:48:55.089Z,15.40
2018-05-14T07:51:21.437Z,15.50
2018-05-14T07:53:47.761Z,15.70
2018-05-14T07:56:14.346Z,15.70
2018-05-14T07:58:40.684Z,15.70
2018-05-14T08:01:07.012Z,15.70
2018-05-14T08:03:33.365Z,15.80
2018-05-14T08:05:59.872Z,15.80
2018-05-14T08:08:26.198Z,15.80
2018-05-14T08:10:52.525Z,15.80
2018-05-14T08:13:18.849Z,15.90
2018-05-14T08:15:45.405Z,15.90
2018-05-14T08:18:12.468Z,15.90
2018-05-14T08:20:39.558Z,15.90
2018-05-14T08:23:06.089Z,15.90
2018-05-14T08:25:32.442Z,15.80
2018-05-14T08:27:58.781Z,15.90
2018-05-14T08:30:25.083Z,15.90
2018-05-14T08:32:51.438Z,15.90
2018-05-14T08:35:17.988Z,15.90
2018-05-14T08:37:45.183Z,16.00
2018-05-14T08:40:11.491Z,16.00
2018-05-14T08:42:37.824Z,16.00
2018-05-14T08:45:04.158Z,16.00
2018-05-14T08:47:30.497Z,16.00
2018-05-14T08:49:56.821Z,16.00
2018-05-14T08:52:23.134Z,16.00
2018-05-14T08:54:49.453Z,16.10
2018-05-14T08:57:16.520Z,16.10
2018-05-14T08:59:42.833Z,16.10
2018-05-14T09:02:09.936Z,16.10
2018-05-14T09:04:36.474Z,16.10
2018-05-14T09:07:02.812Z,16.10
2018-05-14T09:09:29.152Z,16.10
2018-05-14T09:11:55.482Z,16.10
2018-05-14T09:14:21.849Z,16.20
2018-05-14T09:16:48.945Z,16.20
2018-05-14T09:19:15.263Z,16.10
2018-05-14T09:21:41.576Z,16.10
2018-05-14T09:24:08.105Z,16.20
2018-05-14T09:26:34.602Z,16.20
2018-05-14T09:29:00.909Z,16.20
2018-05-14T09:31:27.236Z,16.20
2018-05-14T09:33:53.573Z,16.10
2018-05-14T09:36:20.129Z,16.10
2018-05-14T09:38:46.504Z,16.10
2018-05-14T09:41:12.829Z,16.10
2018-05-14T09:43:39.944Z,16.20
2018-05-14T09:46:06.709Z,16.20
2018-05-14T09:48:33.025Z,16.20
2018-05-14T09:50:59.346Z,16.30
2018-05-14T09:53:25.669Z,16.30
2018-05-14T09:55:52.105Z,16.20
2018-05-14T09:58:18.457Z,16.30
2018-05-14T10:00:44.772Z,16.30
2018-05-14T10:03:11.083Z,16.30
2018-05-14T10:05:37.795Z,16.30
2018-05-14T10:08:04.105Z,16.30
2018-05-14T10:10:31.154Z,16.40
2018-05-14T10:12:57.581Z,16.40
2018-05-14T10:15:24.689Z,16.30
2018-05-14T10:17:50.999Z,16.30
2018-05-14T10:20:17.345Z,16.30
2018-05-14T10:22:43.685Z,16.30
2018-05-14T10:25:10.070Z,16.30
2018-05-14T10:27:36.405Z,16.30
2018-05-14T10:30:02.802Z,16.30
2018-05-14T10:32:29.865Z,16.30
2018-05-14T10:34:56.222Z,16.20
2018-05-14T10:37:22.615Z,16.30
2018-05-14T10:39:48.941Z,16.30
2018-05-14T10:42:15.277Z,16.20
2018-05-14T10:44:42.369Z,16.20
2018-05-14T10:47:08.762Z,16.20
2018-05-14T10:49:35.097Z,16.20
2018-05-14T10:52:01.411Z,16.20
2018-05-14T10:54:27.773Z,16.20
2018-05-14T10:56:54.261Z,16.30
2018-05-14T10:59:20.613Z,16.20
2018-05-14T11:01:46.921Z,16.20
2018-05-14T11:04:13.254Z,16.20
2018-05-14T11:06:39.973Z,16.20
2018-05-14T11:09:06.378Z,16.20
2018-05-14T11:11:32.759Z,16.30
2018-05-14T11:13:59.073Z,16.30
2018-05-14T11:16:25.638Z,16.30
2018-05-14T11:18:52.090Z,16.30
2018-05-14T11:21:18.350Z,16.20
2018-05-14T11:23:44.689Z,16.30
2018-05-14T11:26:11.277Z,16.30
2018-05-14T11:28:37.588Z,16.30
2018-05-14T11:31:03.932Z,16.30
2018-05-14T11:33:30.255Z,16.50
2018-05-14T11:35:56.692Z,16.40
2018-05-14T11:38:23.018Z,16.30
2018-05-14T11:40:49.353Z,16.30
2018-05-14T11:43:15.721Z,16.30
2018-05-14T11:45:42.201Z,16.10
2018-05-14T11:48:08.601Z,16.20
2018-05-14T11:50:34.909Z,16.20
2018-05-14T11:53:02.012Z,16.10
2018-05-14T11:55:28.317Z,16.10
2018-05-14T11:57:54.632Z,16.10
2018-05-14T12:00:20.985Z,16.10
2018-05-14T12:02:47.380Z,16.00
2018-05-14T12:05:13.629Z,16.00
2018-05-14T12:07:39.994Z,16.00
2018-05-14T12:10:06.353Z,16.00
2018-05-14T12:12:32.663Z,15.90
2018-05-14T12:14:59.719Z,15.90
2018-05-14T12:17:26.047Z,15.90
2018-05-14T12:19:52.396Z,15.90
2018-05-14T12:22:18.728Z,15.90
2018-05-14T12:24:45.834Z,16.00
2018-05-14T12:27:12.457Z,16.00
2018-05-14T12:29:38.857Z,16.00
2018-05-14T12:32:05.342Z,16.10
2018-05-14T12:34:31.573Z,16.10
2018-05-14T12:36:58.230Z,16.10
2018-05-14T12:39:24.565Z,16.10
2018-05-14T12:41:50.906Z,16.10
2018-05-14T12:44:17.305Z,16.10
2018-05-14T12:46:43.832Z,16.10
2018-05-14T12:49:10.340Z,16.10
2018-05-14T12:51:36.649Z,16.10
2018-05-14T12:54:03.057Z,16.10
2018-05-14T12:56:29.613Z,16.10
2018-05-14T12:58:55.922Z,16.20
2018-05-14T13:01:22.357Z,16.20
2018-05-14T13:03:49.392Z,16.20
2018-05-14T13:06:15.897Z,16.20
2018-05-14T13:08:42.266Z,16.20
2018-05-14T13:11:08.633Z,16.20
2018-05-14T13:13:34.981Z,16.20
2018-05-14T13:16:01.584Z,16.20
2018-05-14T13:18:27.921Z,16.20
2018-05-14T13:20:54.238Z,16.20
2018-05-14T13:23:20.542Z,16.20
2018-05-14T13:25:46.900Z,16.20
2018-05-14T13:28:13.253Z,16.20
2018-05-14T13:30:40.489Z,16.30
2018-05-14T13:33:06.813Z,16.20
2018-05-14T13:35:33.188Z,16.20
2018-05-14T13:37:59.612Z,16.30
2018-05-14T13:40:25.870Z,16.30
2018-05-14T13:42:52.231Z,16.20
2018-05-14T13:45:18.586Z,16.20
2018-05-14T13:47:45.651Z,16.20
2018-05-14T13:50:12.758Z,16.20
2018-05-14T13:52:39.139Z,16.20
2018-05-14T13:55:05.470Z,16.30
2018-05-14T13:57:31.790Z,16.30
2018-05-14T13:59:58.889Z,16.30
2018-05-14T14:02:25.197Z,16.20
2018-05-14T14:04:51.584Z,16.20
2018-05-14T14:07:17.929Z,16.20
2018-05-14T14:09:45.066Z,16.20
2018-05-14T14:12:11.399Z,16.20
2018-05-14T14:14:37.713Z,16.20
2018-05-14T14:17:04.349Z,16.20
2018-05-14T14:19:31.079Z,16.10
2018-05-14T14:21:57.393Z,16.10
2018-05-14T14:24:23.790Z,16.20
2018-05-14T14:26:50.169Z,16.00
2018-05-14T14:29:16.597Z,15.90
2018-05-14T14:31:42.933Z,15.90
2018-05-14T14:34:09.270Z,15.90
2018-05-14T14:36:35.707Z,15.90
2018-05-14T14:39:02.149Z,15.90
2018-05-14T14:41:28.476Z,15.90
2018-05-14T14:43:54.842Z,15.90
2018-05-14T14:46:21.281Z,15.90
2018-05-14T14:48:47.601Z,15.90
2018-05-14T14:51:13.985Z,15.80
2018-05-14T14:53:40.391Z,15.80
2018-05-14T14:56:06.685Z,15.80
2018-05-14T14:58:33.744Z,15.80
2018-05-14T15:01:00.091Z,15.80
2018-05-14T15:03:26.599Z,15.90
2018-05-14T15:05:53.706Z,15.80
2018-05-14T15:08:20.172Z,15.80
2018-05-14T15:10:46.510Z,15.70
2018-05-14T15:13:13.577Z,15.70
2018-05-14T15:15:39.921Z,15.70
2018-05-14T15:18:06.244Z,15.70
2018-05-14T15:20:32.557Z,15.70
2018-05-14T15:22:59.633Z,15.60
2018-05-14T15:25:25.959Z,15.60
2018-05-14T15:27:52.282Z,15.60
2018-05-14T15:30:19.413Z,15.50
2018-05-14T15:32:46.538Z,15.50
2018-05-14T15:35:12.894Z,15.50
2018-05-14T15:37:40.010Z,15.50
2018-05-14T15:40:06.332Z,15.50
2018-05-14T15:42:32.648Z,15.50
2018-05-14T15:44:59.004Z,15.50
2018-05-14T15:47:25.551Z,15.40
2018-05-14T15:49:51.928Z,15.40
2018-05-14T15:52:18.341Z,15.40
2018-05-14T15:54:44.645Z,15.40
2018-05-14T15:57:11.102Z,15.30
2018-05-14T15:59:38.177Z,15.30
2018-05-14T16:02:04.530Z,15.30
2018-05-14T16:04:30.865Z,15.30
2018-05-14T16:06:57.217Z,15.30
2018-05-14T16:09:23.569Z,15.20
2018-05-14T16:11:50.753Z,15.20
2018-05-14T16:14:17.109Z,15.30
2018-05-14T16:16:43.673Z,15.30
2018-05-14T16:19:09.986Z,15.30
2018-05-14T16:21:36.306Z,15.50
2018-05-14T16:24:02.693Z,15.30
2018-05-14T16:26:29.831Z,14.90
2018-05-14T16:28:56.136Z,14.90
2018-05-14T16:31:22.610Z,14.90
2018-05-14T16:33:49.720Z,14.90
2018-05-14T16:36:16.298Z,14.90
2018-05-14T16:38:43.432Z,14.90
2018-05-14T16:41:09.733Z,14.90
2018-05-14T16:43:36.090Z,14.90
2018-05-14T16:46:03.162Z,14.60
2018-05-14T16:48:29.486Z,14.60
2018-05-14T16:50:56.589Z,14.50
2018-05-14T16:53:22.905Z,14.50
2018-05-14T16:55:49.293Z,14.50
2018-05-14T16:58:15.630Z,14.20
2018-05-14T17:00:41.993Z,14.10
2018-05-14T17:03:08.321Z,14.10
2018-05-14T17:05:34.997Z,14.00
2018-05-14T17:08:01.378Z,14.00
2018-05-14T17:10:27.717Z,14.00
2018-05-14T17:12:54.893Z,14.00
2018-05-14T17:15:21.257Z,14.00
2018-05-14T17:17:48.465Z,14.10
2018-05-14T17:20:14.833Z,14.10
2018-05-14T17:22:41.674Z,14.10
2018-05-14T17:25:08.034Z,14.20
2018-05-14T17:27:34.363Z,14.10
2018-05-14T17:30:01.444Z,14.20
2018-05-14T17:32:28.678Z,14.10
2018-05-14T17:34:55.817Z,14.10
2018-05-14T17:37:22.261Z,14.10
2018-05-14T17:39:48.614Z,14.00
2018-05-14T17:42:14.965Z,14.10
2018-05-14T17:44:41.310Z,14.10
2018-05-14T17:47:07.962Z,14.30
2018-05-14T17:49:34.338Z,14.20
2018-05-14T17:52:00.653Z,14.00
2018-05-14T17:54:26.957Z,14.00
2018-05-14T17:56:54.128Z,14.20
2018-05-14T17:59:20.474Z,14.20
2018-05-14T18:01:46.785Z,14.20
2018-05-14T18:04:13.141Z,14.20
2018-05-14T18:06:39.607Z,14.20
2018-05-14T18:09:05.941Z,14.00
2018-05-14T18:11:32.305Z,13.90
2018-05-14T18:13:59.383Z,13.70
2018-05-14T18:16:25.741Z,13.70
2018-05-14T18:18:52.118Z,13.80
2018-05-14T18:21:25.285Z,13.70
2018-05-14T18:23:51.637Z,13.60
2018-05-14T18:26:19.053Z,13.60
2018-05-14T18:28:48.437Z,13.50
2018-05-14T18:31:20.948Z,13.60
2018-05-14T18:33:47.230Z,13.70
2018-05-14T18:36:13.696Z,13.90
2018-05-14T18:38:40.033Z,14.00
2018-05-14T18:41:06.377Z,13.80
2018-05-14T18:43:32.721Z,13.80
2018-05-14T18:45:59.877Z,13.60
2018-05-14T18:48:26.942Z,13.70
2018-05-14T18:50:54.105Z,13.80
2018-05-14T18:53:20.434Z,13.70
2018-05-14T18:55:46.924Z,13.70
2018-05-14T18:58:13.278Z,13.60
2018-05-14T19:00:39.589Z,13.60
2018-05-14T19:03:05.904Z,13.60
2018-05-14T19:05:32.461Z,13.60
2018-05-14T19:07:59.504Z,13.50
2018-05-14T19:10:31.845Z,13.50
2018-05-14T19:12:58.277Z,13.50
2018-05-14T19:15:30.728Z,13.70
2018-05-14T19:17:59.153Z,13.70
2018-05-14T19:20:25.510Z,13.70
2018-05-14T19:22:58.549Z,13.80
2018-05-14T19:25:25.681Z,14.00
2018-05-14T19:27:58.026Z,14.00
2018-05-14T19:30:25.123Z,13.80
2018-05-14T19:32:51.525Z,13.70
2018-05-14T19:35:23.894Z,13.70
2018-05-14T19:37:51.115Z,13.70
2018-05-14T19:40:23.657Z,13.70
2018-05-14T19:42:50.865Z,13.50
2018-05-14T19:45:17.246Z,13.40
2018-05-14T19:47:43.557Z,13.30
2018-05-14T19:50:10.023Z,13.30
2018-05-14T19:52:36.318Z,13.20
2018-05-14T19:55:02.689Z,13.10
2018-05-14T19:57:29.325Z,13.20
2018-05-14T19:59:55.695Z,13.20
2018-05-14T20:02:22.090Z,13.30
2018-05-14T20:04:48.485Z,13.40
2018-05-14T20:07:14.812Z,13.30
2018-05-14T20:09:41.131Z,13.20
2018-05-14T20:12:07.464Z,13.20
2018-05-14T20:14:33.797Z,13.40
2018-05-14T20:17:00.109Z,13.50
2018-05-14T20:19:26.475Z,13.60
2018-05-14T20:21:52.914Z,13.50
2018-05-14T20:24:20.114Z,13.50
2018-05-14T20:26:46.426Z,13.40
2018-05-14T20:29:12.745Z,13.30
2018-05-14T20:31:39.091Z,13.30
2018-05-14T20:34:06.201Z,13.60
2018-05-14T20:36:32.541Z,13.60
2018-05-14T20:38:58.857Z,13.60
2018-05-14T20:41:25.254Z,13.50
2018-05-14T20:43:51.653Z,13.40
2018-05-14T20:46:18.205Z,13.40
2018-05-14T20:48:44.513Z,13.50
2018-05-14T20:51:10.849Z,13.40
2018-05-14T20:53:37.162Z,13.30
2018-05-14T20:56:03.798Z,13.50
2018-05-14T20:58:30.133Z,13.40
2018-05-14T21:00:57.203Z,13.10
2018-05-14T21:03:23.533Z,13.10
2018-05-14T21:05:50.230Z,13.00
2018-05-14T21:08:16.561Z,13.00
2018-05-14T21:10:42.897Z,12.90
2018-05-14T21:13:09.201Z,13.00
2018-05-14T21:15:35.680Z,13.00
2018-05-14T21:18:02.010Z,13.10
2018-05-14T21:20:28.328Z,13.10
2018-05-14T21:22:54.793Z,13.10
2018-05-14T21:25:21.257Z,13.10
2018-05-14T21:27:47.593Z,13.00
2018-05-14T21:30:13.965Z,13.00
2018-05-14T21:32:40.278Z,13.00
2018-05-14T21:35:06.604Z,13.10
2018-05-14T21:37:33.075Z,13.00
2018-05-14T21:40:00.165Z,12.90
2018-05-14T21:42:26.534Z,12.90
2018-05-14T21:44:53.747Z,13.30
2018-05-14T21:47:20.849Z,13.20
2018-05-14T21:49:47.181Z,13.20
2018-05-14T21:52:13.556Z,13.10
2018-05-14T21:54:39.882Z,12.90
2018-05-14T21:57:06.959Z,12.80
2018-05-14T21:59:33.334Z,12.80
2018-05-14T22:01:59.646Z,12.60
2018-05-14T22:04:25.983Z,12.70
2018-05-14T22:06:56.251Z,12.70
2018-05-14T22:09:23.347Z,12.90
2018-05-14T22:11:49.698Z,12.80
2018-05-14T22:14:16.015Z,12.70
2018-05-14T22:16:42.369Z,12.70
2018-05-14T22:19:08.676Z,12.60
2018-05-14T22:21:34.994Z,12.40
2018-05-14T22:24:01.366Z,12.40
2018-05-14T22:26:28.473Z,12.40
2018-05-14T22:28:55.585Z,12.30
2018-05-14T22:31:22.189Z,12.30
2018-05-14T22:33:48.521Z,12.20
2018-05-14T22:36:14.878Z,12.30
2018-05-14T22:38:41.958Z,12.30
2018-05-14T22:41:08.317Z,12.30
2018-05-14T22:43:34.696Z,12.30
2018-05-14T22:46:01.224Z,12.30
2018-05-14T22:48:28.360Z,12.00
2018-05-14T22:50:55.466Z,12.00
2018-05-14T22:53:22.044Z,12.00
2018-05-14T22:55:48.569Z,12.10
2018-05-14T22:58:14.917Z,12.10
2018-05-14T23:00:41.238Z,12.20
2018-05-14T23:03:08.341Z,11.90
2018-05-14T23:05:34.733Z,11.90
2018-05-14T23:08:01.916Z,11.60
2018-05-14T23:10:28.260Z,11.60
2018-05-14T23:12:54.841Z,11.80
2018-05-14T23:15:22.918Z,11.90
2018-05-14T23:17:50.275Z,11.70
2018-05-14T23:20:17.459Z,11.80
2018-05-14T23:22:44.860Z,11.70
2018-05-14T23:25:11.338Z,11.70
2018-05-14T23:27:37.894Z,11.90
2018-05-14T23:30:04.585Z,11.70
2018-05-14T23:32:31.210Z,11.70
2018-05-14T23:34:57.753Z,11.60
2018-05-14T23:37:25.491Z,11.50
2018-05-14T23:39:51.971Z,11.50
2018-05-14T23:42:19.191Z,11.50
2018-05-14T23:44:45.822Z,11.50
2018-05-14T23:47:12.265Z,11.60
2018-05-14T23:49:38.670Z,11.50
2018-05-14T23:52:05.014Z,11.60
2018-05-14T23:54:31.493Z,11.60
2018-05-14T23:56:58.134Z,11.60
2018-05-14T23:59:24.447Z,11.40
